createdAt,value
2019-01-25T00:01:40.640Z,22.53
2019-01-25T00:04:10.235Z,20.67
2019-01-25T00:06:39.827Z,19.50
2019-01-25T00:09:09.821Z,18.97
2019-01-25T00:11:39.487Z,19.17
2019-01-25T00:14:09.197Z,18.67
2019-01-25T00:16:38.790Z,22.30
2019-01-25T00:19:08.459Z,20.90
2019-01-25T00:21:38.122Z,23.60
2019-01-25T00:24:07.832Z,19.67
2019-01-25T00:26:37.520Z,23.97
2019-01-25T00:29:07.089Z,22.40
2019-01-25T00:31:36.691Z,21.37
2019-01-25T00:34:06.325Z,19.83
2019-01-25T00:36:35.918Z,21.33
2019-01-25T00:39:07.625Z,19.00
2019-01-25T00:41:37.287Z,25.70
2019-01-25T00:44:07.035Z,16.33
2019-01-25T00:46:36.599Z,24.90
2019-01-25T00:49:06.356Z,22.07
2019-01-25T00:51:35.913Z,22.53
2019-01-25T00:54:06.291Z,19.97
2019-01-25T00:56:35.989Z,17.40
2019-01-25T00:59:05.943Z,17.53
2019-01-25T01:01:35.611Z,26.80
2019-01-25T01:04:05.925Z,17.13
2019-01-25T01:06:35.627Z,19.27
2019-01-25T01:09:08.599Z,21.27
2019-01-25T01:11:38.222Z,24.00
2019-01-25T01:14:07.847Z,18.07
2019-01-25T01:16:37.413Z,22.30
2019-01-25T01:19:07.118Z,17.17
2019-01-25T01:21:36.710Z,18.53
2019-01-25T01:24:06.367Z,20.60
2019-01-25T01:26:36.335Z,21.80
2019-01-25T01:29:05.946Z,18.60
2019-01-25T01:31:35.760Z,20.47
2019-01-25T01:34:05.616Z,19.60
2019-01-25T01:36:35.260Z,18.90
2019-01-25T01:39:07.080Z,21.30
2019-01-25T01:41:36.662Z,16.60
2019-01-25T01:44:06.296Z,20.90
2019-01-25T01:46:35.891Z,19.13
2019-01-25T01:49:05.912Z,19.03
2019-01-25T01:51:35.492Z,22.90
2019-01-25T01:54:05.384Z,20.27
2019-01-25T01:56:34.970Z,19.90
2019-01-25T01:59:04.554Z,17.13
2019-01-25T02:01:34.239Z,22.67
2019-01-25T02:04:03.960Z,23.00
2019-01-25T02:06:33.639Z,18.90
2019-01-25T02:09:05.158Z,20.80
2019-01-25T02:11:34.814Z,18.47
2019-01-25T02:14:04.468Z,20.50
2019-01-25T02:16:34.134Z,21.60
2019-01-25T02:19:04.508Z,25.93
2019-01-25T02:21:34.090Z,20.70
2019-01-25T02:24:03.696Z,19.00
2019-01-25T02:26:33.386Z,21.53
2019-01-25T02:29:02.892Z,21.03
2019-01-25T02:31:32.496Z,32.47
2019-01-25T02:34:02.379Z,20.60
2019-01-25T02:36:31.950Z,22.33
2019-01-25T02:39:01.634Z,21.00
2019-01-25T02:41:31.241Z,17.90
2019-01-25T02:44:01.375Z,19.17
2019-01-25T02:46:30.912Z,18.00
2019-01-25T02:49:00.525Z,23.13
2019-01-25T02:51:30.072Z,17.83
2019-01-25T02:53:59.642Z,19.63
2019-01-25T02:56:29.218Z,16.93
2019-01-25T02:58:58.821Z,19.87
2019-01-25T03:01:28.376Z,22.30
2019-01-25T03:03:58.025Z,17.93
2019-01-25T03:06:27.675Z,19.77
2019-01-25T03:08:57.237Z,21.53
2019-01-25T03:11:26.801Z,21.27
2019-01-25T03:13:56.424Z,24.40
2019-01-25T03:16:26.111Z,23.47
2019-01-25T03:18:55.674Z,19.63
2019-01-25T03:21:25.245Z,20.03
2019-01-25T03:23:54.842Z,21.77
2019-01-25T03:26:24.476Z,20.40
2019-01-25T03:28:54.119Z,19.33
2019-01-25T03:31:23.782Z,22.63
2019-01-25T03:33:53.419Z,23.50
2019-01-25T03:36:23.011Z,20.30
2019-01-25T03:38:52.577Z,18.47
2019-01-25T03:41:22.179Z,19.60
2019-01-25T03:43:51.970Z,24.57
2019-01-25T03:46:21.639Z,19.47
2019-01-25T03:48:51.366Z,17.77
2019-01-25T03:51:20.943Z,22.37
2019-01-25T03:53:50.733Z,17.37
2019-01-25T03:56:20.328Z,22.77
2019-01-25T03:58:49.985Z,25.23
2019-01-25T04:01:19.605Z,21.27
2019-01-25T04:03:49.153Z,24.97
2019-01-25T04:06:18.977Z,21.67
2019-01-25T04:08:48.769Z,22.83
2019-01-25T04:11:18.381Z,18.97
2019-01-25T04:13:48.129Z,24.33
2019-01-25T04:16:17.736Z,25.93
2019-01-25T04:18:47.399Z,19.43
2019-01-25T04:21:16.990Z,21.53
2019-01-25T04:23:46.580Z,23.63
2019-01-25T04:26:16.155Z,18.83
2019-01-25T04:28:45.754Z,25.60
2019-01-25T04:31:15.403Z,27.67
2019-01-25T04:33:45.001Z,18.67
2019-01-25T04:36:14.630Z,20.40
2019-01-25T04:38:44.355Z,25.77
2019-01-25T04:41:13.935Z,21.33
2019-01-25T04:43:43.511Z,22.00
2019-01-25T04:46:13.078Z,19.63
2019-01-25T04:48:42.643Z,31.20
2019-01-25T04:51:13.993Z,18.87
2019-01-25T04:53:43.556Z,20.87
2019-01-25T04:56:13.145Z,20.13
2019-01-25T04:58:42.729Z,19.40
2019-01-25T05:01:12.467Z,19.77
2019-01-25T05:03:42.276Z,22.23
2019-01-25T05:06:12.601Z,22.87
2019-01-25T05:08:42.176Z,17.60
2019-01-25T05:11:20.216Z,20.00
2019-01-25T05:13:50.041Z,23.27
2019-01-25T05:16:19.677Z,17.90
2019-01-25T05:18:49.245Z,24.17
2019-01-25T05:21:25.827Z,15.87
2019-01-25T05:23:55.417Z,21.00
2019-01-25T05:26:25.073Z,19.77
2019-01-25T05:28:54.671Z,22.97
2019-01-25T05:31:27.469Z,18.17
2019-01-25T05:33:59.271Z,18.90
2019-01-25T05:36:29.042Z,24.87
2019-01-25T05:38:58.629Z,19.17
2019-01-25T05:41:28.926Z,22.57
2019-01-25T05:43:58.611Z,22.37
2019-01-25T05:46:28.230Z,24.83
2019-01-25T05:48:57.851Z,21.37
2019-01-25T05:51:33.525Z,23.10
2019-01-25T05:53:58.743Z,17.07
2019-01-25T05:56:28.310Z,26.50
2019-01-25T05:58:57.896Z,20.60
2019-01-25T06:01:27.455Z,21.33
2019-01-25T06:03:58.033Z,22.57
2019-01-25T06:06:29.321Z,23.80
2019-01-25T06:08:58.880Z,22.00
2019-01-25T06:11:35.254Z,25.50
2019-01-25T06:13:59.757Z,26.17
2019-01-25T06:16:29.986Z,29.77
2019-01-25T06:18:59.530Z,23.97
2019-01-25T06:21:29.151Z,24.63
2019-01-25T06:23:58.717Z,25.57
2019-01-25T06:26:28.399Z,21.10
2019-01-25T06:28:57.969Z,25.73
2019-01-25T06:31:27.564Z,22.80
2019-01-25T06:33:57.100Z,25.87
2019-01-25T06:36:26.704Z,25.07
2019-01-25T06:38:56.268Z,27.40
2019-01-25T06:41:25.962Z,26.97
2019-01-25T06:43:55.521Z,24.30
2019-01-25T06:46:25.069Z,25.57
2019-01-25T06:48:54.679Z,22.53
2019-01-25T06:51:24.345Z,27.73
2019-01-25T06:53:53.948Z,33.00
2019-01-25T06:56:23.555Z,23.50
2019-01-25T06:59:24.317Z,21.40
2019-01-25T07:02:12.899Z,19.90
2019-01-25T07:04:42.504Z,18.97
2019-01-25T07:07:25.869Z,24.23
2019-01-25T07:09:55.464Z,16.80
2019-01-25T07:12:25.126Z,25.93
2019-01-25T07:14:54.760Z,26.70
2019-01-25T07:17:24.450Z,27.77
2019-01-25T07:19:54.072Z,21.50
2019-01-25T07:22:23.673Z,26.73
2019-01-25T07:24:57.286Z,21.60
2019-01-25T07:27:24.906Z,20.33
2019-01-25T07:29:54.592Z,21.17
2019-01-25T07:32:24.139Z,20.83
2019-01-25T07:34:53.741Z,25.07
2019-01-25T07:37:23.405Z,24.30
2019-01-25T07:39:53.055Z,22.97
2019-01-25T07:42:22.637Z,23.90
2019-01-25T07:44:52.239Z,24.33
2019-01-25T07:47:21.944Z,26.30
2019-01-25T07:49:51.584Z,25.03
2019-01-25T07:52:21.181Z,23.43
2019-01-25T07:54:50.817Z,24.93
2019-01-25T07:57:20.431Z,27.33
2019-01-25T07:59:50.038Z,21.63
2019-01-25T08:02:19.655Z,27.23
2019-01-25T08:04:50.111Z,25.90
2019-01-25T08:07:19.756Z,24.47
2019-01-25T08:09:49.329Z,26.40
2019-01-25T08:12:18.945Z,22.87
2019-01-25T08:14:48.618Z,22.93
2019-01-25T08:17:18.241Z,23.67
2019-01-25T08:19:47.925Z,22.77
2019-01-25T08:22:17.542Z,21.23
2019-01-25T08:24:47.131Z,26.20
2019-01-25T08:27:16.724Z,25.03
2019-01-25T08:29:46.327Z,19.80
2019-01-25T08:32:15.944Z,22.97
2019-01-25T08:34:45.511Z,26.27
2019-01-25T08:37:15.093Z,25.30
2019-01-25T08:39:44.893Z,25.87
2019-01-25T08:42:15.626Z,28.27
2019-01-25T08:44:45.540Z,24.50
2019-01-25T08:47:15.166Z,27.17
2019-01-25T08:49:44.857Z,27.40
2019-01-25T08:52:14.456Z,26.63
2019-01-25T08:54:44.038Z,24.23
2019-01-25T08:57:13.821Z,23.80
2019-01-25T08:59:45.618Z,24.37
2019-01-25T09:02:14.711Z,24.80
2019-01-25T09:04:44.593Z,27.30
2019-01-25T09:07:14.249Z,30.27
2019-01-25T09:09:43.851Z,32.77
2019-01-25T09:12:13.506Z,23.40
2019-01-25T09:14:43.160Z,22.33
2019-01-25T09:17:12.867Z,26.23
2019-01-25T09:19:42.430Z,22.87
2019-01-25T09:22:12.050Z,26.00
2019-01-25T09:24:41.652Z,24.17
2019-01-25T09:27:11.262Z,19.20
2019-01-25T09:29:40.866Z,24.87
2019-01-25T09:32:10.934Z,23.30
2019-01-25T09:34:40.533Z,21.47
2019-01-25T09:37:10.137Z,27.50
2019-01-25T09:39:39.748Z,23.97
2019-01-25T09:42:09.349Z,22.40
2019-01-25T09:44:38.897Z,23.50
2019-01-25T09:47:08.644Z,25.40
2019-01-25T09:49:38.255Z,22.70
2019-01-25T09:52:07.934Z,23.23
2019-01-25T09:54:37.587Z,24.30
2019-01-25T09:57:07.382Z,18.53
2019-01-25T09:59:37.023Z,23.40
2019-01-25T10:02:06.670Z,22.67
2019-01-25T10:04:36.281Z,19.97
2019-01-25T10:07:05.931Z,17.07
2019-01-25T10:09:35.511Z,22.60
2019-01-25T10:12:05.351Z,21.40
2019-01-25T10:14:35.027Z,22.53
2019-01-25T10:17:04.862Z,21.83
2019-01-25T10:19:34.464Z,24.07
2019-01-25T10:22:04.180Z,20.53
2019-01-25T10:24:33.789Z,23.53
2019-01-25T10:27:03.417Z,25.50
2019-01-25T10:29:33.006Z,20.60
2019-01-25T10:32:02.616Z,19.13
2019-01-25T10:34:32.265Z,18.63
2019-01-25T10:37:01.863Z,18.40
2019-01-25T10:39:31.636Z,19.43
2019-01-25T10:42:01.431Z,24.13
2019-01-25T10:44:31.075Z,20.13
2019-01-25T10:47:00.687Z,18.97
2019-01-25T10:49:30.269Z,26.50
2019-01-25T10:51:59.867Z,20.50
2019-01-25T10:54:29.646Z,18.97
2019-01-25T10:56:59.424Z,22.23
2019-01-25T10:59:29.195Z,16.00
2019-01-25T11:01:58.795Z,17.10
2019-01-25T11:04:28.485Z,21.20
2019-01-25T11:06:58.264Z,21.43
2019-01-25T11:09:27.879Z,17.10
2019-01-25T11:11:57.577Z,22.17
2019-01-25T11:14:27.281Z,20.43
2019-01-25T11:16:56.844Z,21.00
2019-01-25T11:19:26.412Z,17.50
2019-01-25T11:21:56.036Z,26.47
2019-01-25T11:24:25.631Z,22.17
2019-01-25T11:26:55.227Z,24.83
2019-01-25T11:29:24.896Z,20.87
2019-01-25T11:31:54.500Z,22.80
2019-01-25T11:34:24.098Z,27.00
2019-01-25T11:36:53.705Z,22.77
2019-01-25T11:39:23.346Z,24.17
2019-01-25T11:41:53.044Z,27.90
2019-01-25T11:44:22.669Z,23.80
2019-01-25T11:46:52.281Z,25.20
2019-01-25T11:49:21.890Z,26.53
2019-01-25T11:51:51.511Z,28.07
2019-01-25T11:54:21.188Z,27.77
2019-01-25T11:56:50.835Z,26.10
2019-01-25T11:59:20.461Z,28.83
2019-01-25T12:01:50.173Z,27.33
2019-01-25T12:04:19.779Z,26.73
2019-01-25T12:06:49.450Z,29.70
2019-01-25T12:09:19.100Z,26.60
2019-01-25T12:11:48.781Z,24.73
2019-01-25T12:14:18.402Z,31.83
2019-01-25T12:16:48.073Z,26.47
2019-01-25T12:19:17.774Z,26.77
2019-01-25T12:21:47.398Z,26.70
2019-01-25T12:24:19.893Z,31.83
2019-01-25T12:26:49.468Z,27.23
2019-01-25T12:29:19.133Z,29.63
2019-01-25T12:31:48.738Z,34.67
2019-01-25T12:34:18.331Z,31.87
2019-01-25T12:36:47.958Z,34.33
2019-01-25T12:39:17.570Z,32.53
2019-01-25T12:41:47.348Z,30.13
2019-01-25T12:44:17.056Z,30.10
2019-01-25T12:46:46.691Z,27.47
2019-01-25T12:49:16.269Z,27.17
2019-01-25T12:52:09.997Z,25.63
2019-01-25T12:54:39.720Z,26.97
2019-01-25T12:57:09.813Z,27.67
2019-01-25T12:59:39.484Z,33.37
2019-01-25T13:02:09.184Z,34.63
2019-01-25T13:04:38.831Z,26.17
2019-01-25T13:07:08.547Z,29.13
2019-01-25T13:09:38.162Z,28.23
2019-01-25T13:12:12.482Z,24.87
2019-01-25T13:14:42.047Z,27.87
2019-01-25T13:17:11.878Z,20.87
2019-01-25T13:19:41.464Z,26.37
2019-01-25T13:22:11.070Z,23.63
2019-01-25T13:24:40.656Z,23.13
2019-01-25T13:27:10.384Z,29.23
2019-01-25T13:29:39.958Z,27.40
2019-01-25T13:32:14.416Z,24.60
2019-01-25T13:34:41.008Z,30.20
2019-01-25T13:37:11.300Z,27.33
2019-01-25T13:39:40.932Z,30.73
2019-01-25T13:42:10.508Z,26.43
2019-01-25T13:44:40.130Z,24.07
2019-01-25T13:47:09.750Z,29.57
2019-01-25T13:49:39.478Z,32.60
2019-01-25T13:52:09.220Z,23.73
2019-01-25T13:54:38.946Z,30.23
2019-01-25T13:57:08.742Z,26.97
2019-01-25T13:59:38.832Z,32.60
2019-01-25T14:02:08.490Z,25.63
2019-01-25T14:04:38.144Z,29.90
2019-01-25T14:07:07.804Z,29.53
2019-01-25T14:09:37.504Z,31.03
2019-01-25T14:12:08.668Z,28.07
2019-01-25T14:14:38.546Z,28.00
2019-01-25T14:17:08.339Z,33.17
2019-01-25T14:19:37.963Z,41.60
2019-01-25T14:22:07.617Z,33.90
2019-01-25T14:24:46.974Z,35.70
2019-01-25T14:27:16.605Z,30.63
2019-01-25T14:29:46.326Z,31.97
2019-01-25T14:32:16.052Z,42.10
2019-01-25T14:34:45.725Z,40.10
2019-01-25T14:37:15.482Z,36.23
2019-01-25T14:39:45.412Z,31.43
2019-01-25T14:42:15.046Z,30.27
2019-01-25T14:44:44.859Z,35.23
2019-01-25T14:47:14.486Z,33.77
2019-01-25T14:49:44.127Z,32.17
2019-01-25T14:52:13.823Z,35.73
2019-01-25T14:54:43.673Z,34.47
2019-01-25T14:57:13.549Z,36.73
2019-01-25T14:59:44.369Z,39.13
2019-01-25T15:02:14.055Z,37.73
2019-01-25T15:04:43.832Z,35.33
2019-01-25T15:07:13.415Z,33.67
2019-01-25T15:09:43.607Z,40.80
2019-01-25T15:12:15.004Z,33.87
2019-01-25T15:14:44.979Z,29.70
2019-01-25T15:17:14.599Z,29.00
2019-01-25T15:19:44.796Z,41.77
2019-01-25T15:22:14.558Z,34.40
2019-01-25T15:24:44.269Z,36.30
2019-01-25T15:27:14.029Z,29.17
2019-01-25T15:29:49.720Z,32.27
2019-01-25T15:32:19.367Z,28.53
2019-01-25T15:34:49.148Z,32.73
2019-01-25T15:37:18.808Z,27.77
2019-01-25T15:39:48.511Z,32.30
2019-01-25T15:42:18.209Z,26.90
2019-01-25T15:44:47.877Z,30.40
2019-01-25T15:47:17.882Z,29.97
2019-01-25T15:49:47.579Z,29.80
2019-01-25T15:52:17.244Z,25.93
2019-01-25T15:54:47.704Z,25.47
2019-01-25T15:57:17.794Z,36.27
2019-01-25T15:59:47.337Z,29.00
2019-01-25T16:02:17.041Z,26.60
2019-01-25T16:04:46.660Z,29.57
2019-01-25T16:07:16.333Z,22.73
2019-01-25T16:09:46.077Z,29.93
2019-01-25T16:12:15.734Z,24.87
2019-01-25T16:14:45.421Z,23.07
2019-01-25T16:17:15.227Z,25.20
2019-01-25T16:19:44.826Z,30.50
2019-01-25T16:22:14.414Z,22.07
2019-01-25T16:24:44.341Z,25.07
2019-01-25T16:27:14.007Z,27.57
2019-01-25T16:29:43.685Z,28.17
2019-01-25T16:32:15.799Z,26.93
2019-01-25T16:35:02.259Z,24.77
2019-01-25T16:37:44.908Z,26.37
2019-01-25T16:40:18.854Z,27.47
2019-01-25T16:42:48.546Z,28.03
2019-01-25T16:45:23.573Z,25.70
2019-01-25T16:47:53.255Z,24.67
2019-01-25T16:50:23.803Z,24.00
2019-01-25T16:52:53.767Z,30.17
2019-01-25T16:55:23.543Z,24.97
2019-01-25T16:57:53.210Z,23.27
2019-01-25T17:00:26.589Z,25.50
2019-01-25T17:02:56.244Z,25.47
2019-01-25T17:05:26.557Z,23.30
2019-01-25T17:07:56.254Z,23.53
2019-01-25T17:10:26.088Z,21.77
2019-01-25T17:12:58.775Z,29.50
2019-01-25T17:15:28.530Z,25.70
2019-01-25T17:17:58.451Z,22.70
2019-01-25T17:20:28.225Z,25.63
2019-01-25T17:22:58.097Z,28.75
2019-01-25T17:25:27.787Z,29.27
2019-01-25T17:27:57.823Z,22.53
2019-01-25T17:30:29.343Z,29.43
2019-01-25T17:33:00.191Z,25.73
2019-01-25T17:35:30.302Z,24.90
2019-01-25T17:38:00.068Z,24.00
2019-01-25T17:40:35.972Z,18.53
2019-01-25T17:43:05.891Z,27.07
2019-01-25T17:45:35.595Z,26.23
2019-01-25T17:48:06.132Z,19.60
2019-01-25T17:50:35.810Z,32.53
2019-01-25T17:53:05.522Z,31.67
2019-01-25T17:55:35.200Z,23.47
2019-01-25T17:58:08.140Z,22.90
2019-01-25T18:00:55.455Z,26.13
2019-01-25T18:03:25.155Z,23.70
2019-01-25T18:05:54.772Z,31.03
2019-01-25T18:08:24.543Z,28.70
2019-01-25T18:10:54.226Z,26.83
2019-01-25T18:13:23.903Z,25.97
2019-01-25T18:15:53.608Z,23.87
2019-01-25T18:18:23.276Z,28.87
2019-01-25T18:20:52.924Z,24.00
2019-01-25T18:23:22.581Z,23.87
2019-01-25T18:26:06.037Z,29.07
2019-01-25T18:28:39.719Z,33.20
2019-01-25T18:31:16.499Z,26.47
2019-01-25T18:33:46.284Z,32.60
2019-01-25T18:36:21.973Z,27.73
2019-01-25T18:38:51.589Z,25.80
2019-01-25T18:41:21.296Z,33.30
2019-01-25T18:43:51.009Z,32.37
2019-01-25T18:46:20.644Z,25.93
2019-01-25T18:48:50.243Z,29.50
2019-01-25T18:51:19.893Z,26.90
2019-01-25T18:53:49.491Z,27.17
2019-01-25T18:56:21.037Z,33.50
2019-01-25T18:58:50.657Z,33.93
2019-01-25T19:01:20.348Z,32.10
2019-01-25T19:03:50.723Z,32.47
2019-01-25T19:06:20.343Z,28.90
2019-01-25T19:08:50.003Z,27.33
2019-01-25T19:11:19.787Z,26.80
2019-01-25T19:13:49.461Z,25.87
2019-01-25T19:16:19.193Z,27.90
2019-01-25T19:18:48.809Z,24.63
2019-01-25T19:21:20.856Z,27.00
2019-01-25T19:23:50.273Z,24.97
2019-01-25T19:26:20.025Z,28.27
2019-01-25T19:28:49.707Z,31.87
2019-01-25T19:31:19.334Z,29.43
2019-01-25T19:33:49.090Z,24.53
2019-01-25T19:36:18.770Z,23.57
2019-01-25T19:38:48.522Z,32.30
2019-01-25T19:41:18.195Z,21.20
2019-01-25T19:43:47.991Z,27.67
2019-01-25T19:46:17.582Z,27.03
2019-01-25T19:48:47.262Z,25.90
2019-01-25T19:51:16.996Z,24.83
2019-01-25T19:53:46.725Z,23.60
2019-01-25T19:56:16.341Z,27.63
2019-01-25T19:58:46.000Z,28.67
2019-01-25T20:01:15.702Z,29.30
2019-01-25T20:03:45.486Z,22.80
2019-01-25T20:06:18.538Z,27.77
2019-01-25T20:08:48.242Z,23.60
2019-01-25T20:11:17.876Z,26.47
2019-01-25T20:13:48.617Z,30.43
2019-01-25T20:16:18.314Z,27.93
2019-01-25T20:18:47.948Z,28.70
2019-01-25T20:21:17.554Z,27.47
2019-01-25T20:23:47.220Z,24.83
2019-01-25T20:26:16.934Z,28.33
2019-01-25T20:28:46.597Z,23.77
2019-01-25T20:31:16.312Z,22.53
2019-01-25T20:33:46.024Z,31.03
2019-01-25T20:36:15.669Z,27.13
2019-01-25T20:38:45.306Z,27.87
2019-01-25T20:41:15.135Z,20.53
2019-01-25T20:43:44.734Z,25.67
2019-01-25T20:46:14.462Z,29.27
2019-01-25T20:48:44.080Z,31.63
2019-01-25T20:51:13.763Z,21.20
2019-01-25T20:53:43.494Z,27.03
2019-01-25T20:56:13.122Z,25.80
2019-01-25T20:58:42.776Z,24.77
2019-01-25T21:01:14.946Z,27.30
2019-01-25T21:03:47.509Z,26.93
2019-01-25T21:06:17.266Z,23.53
2019-01-25T21:08:46.862Z,24.17
2019-01-25T21:11:16.552Z,22.77
2019-01-25T21:13:46.302Z,30.17
2019-01-25T21:16:19.426Z,23.90
2019-01-25T21:18:49.062Z,27.70
2019-01-25T21:21:18.728Z,31.40
2019-01-25T21:23:48.463Z,27.27
2019-01-25T21:26:18.156Z,28.33
2019-01-25T21:28:47.871Z,25.83
2019-01-25T21:31:17.510Z,22.57
2019-01-25T21:33:47.289Z,24.70
2019-01-25T21:36:16.922Z,29.60
2019-01-25T21:38:47.076Z,28.10
2019-01-25T21:41:16.726Z,29.67
2019-01-25T21:43:46.341Z,29.43
2019-01-25T21:46:17.882Z,30.90
2019-01-25T21:48:47.645Z,25.60
2019-01-25T21:51:17.330Z,30.23
2019-01-25T21:53:47.110Z,23.73
2019-01-25T21:56:16.983Z,25.63
2019-01-25T21:58:46.953Z,27.03
2019-01-25T22:01:16.661Z,26.80
2019-01-25T22:03:46.268Z,29.80
2019-01-25T22:06:16.051Z,21.93
2019-01-25T22:08:45.718Z,27.17
2019-01-25T22:11:15.343Z,30.07
2019-01-25T22:13:44.954Z,21.97
2019-01-25T22:16:14.582Z,21.50
2019-01-25T22:18:44.168Z,29.73
2019-01-25T22:21:13.870Z,27.70
2019-01-25T22:23:43.636Z,21.20
2019-01-25T22:26:13.264Z,27.40
2019-01-25T22:28:42.848Z,24.00
2019-01-25T22:31:12.482Z,21.53
2019-01-25T22:33:42.144Z,27.13
2019-01-25T22:36:11.834Z,23.90
2019-01-25T22:38:41.425Z,18.60
2019-01-25T22:41:11.095Z,25.67
2019-01-25T22:43:40.695Z,25.73
2019-01-25T22:46:10.281Z,23.20
2019-01-25T22:48:39.903Z,24.57
2019-01-25T22:51:09.567Z,21.77
2019-01-25T22:53:39.933Z,23.43
2019-01-25T22:56:09.640Z,28.47
2019-01-25T22:58:39.366Z,21.83
2019-01-25T23:01:25.794Z,22.37
2019-01-25T23:04:44.796Z,21.53
2019-01-25T23:07:19.472Z,21.87
2019-01-25T23:10:10.315Z,19.87
2019-01-25T23:12:39.986Z,18.23
2019-01-25T23:15:12.014Z,20.60
2019-01-25T23:17:42.125Z,19.90
2019-01-25T23:22:51.414Z,20.10
2019-01-25T23:25:21.054Z,20.30
2019-01-25T23:27:50.621Z,18.50
2019-01-25T23:30:35.941Z,16.37
2019-01-25T23:33:06.235Z,19.10
2019-01-25T23:35:37.913Z,19.37
2019-01-25T23:38:09.173Z,21.57
2019-01-25T23:40:38.764Z,19.93
2019-01-25T23:43:08.413Z,20.43
2019-01-25T23:45:38.347Z,18.20
2019-01-25T23:48:08.353Z,15.73
2019-01-25T23:50:37.944Z,15.70
2019-01-25T23:53:07.836Z,20.03
2019-01-25T23:55:37.438Z,19.57
2019-01-25T23:58:06.993Z,19.80
